sensor_id;sensor_type;location;lat;lon;timestamp;P1;durP1;ratioP1;P2;durP2;ratioP2
74553;SDS011;65269;59.956;30.214;2022-11-20T00:00:55;3.65;;;1.60;;
74553;SDS011;65269;59.956;30.214;2022-11-20T00:03:21;4.10;;;1.95;;
74553;SDS011;65269;59.956;30.214;2022-11-20T00:05:47;4.90;;;2.15;;
74553;SDS011;65269;59.956;30.214;2022-11-20T00:08:12;4.55;;;2.35;;
74553;SDS011;65269;59.956;30.214;2022-11-20T00:10:39;5.45;;;1.98;;
74553;SDS011;65269;59.956;30.214;2022-11-20T00:13:05;3.45;;;1.50;;
74553;SDS011;65269;59.956;30.214;2022-11-20T00:15:31;4.03;;;1.55;;
74553;SDS011;65269;59.956;30.214;2022-11-20T00:17:57;3.38;;;1.48;;
74553;SDS011;65269;59.956;30.214;2022-11-20T00:20:23;3.58;;;1.90;;
74553;SDS011;65269;59.956;30.214;2022-11-20T00:22:49;3.78;;;2.15;;
74553;SDS011;65269;59.956;30.214;2022-11-20T00:25:15;3.08;;;1.63;;
74553;SDS011;65269;59.956;30.214;2022-11-20T00:27:41;3.03;;;1.50;;
74553;SDS011;65269;59.956;30.214;2022-11-20T00:30:07;6.43;;;2.05;;
74553;SDS011;65269;59.956;30.214;2022-11-20T00:32:33;4.40;;;1.42;;
74553;SDS011;65269;59.956;30.214;2022-11-20T00:34:59;3.35;;;1.60;;
74553;SDS011;65269;59.956;30.214;2022-11-20T00:37:25;4.28;;;1.98;;
74553;SDS011;65269;59.956;30.214;2022-11-20T00:39:51;4.88;;;2.08;;
74553;SDS011;65269;59.956;30.214;2022-11-20T00:42:17;3.90;;;2.15;;
74553;SDS011;65269;59.956;30.214;2022-11-20T00:44:43;4.05;;;1.67;;
74553;SDS011;65269;59.956;30.214;2022-11-20T00:47:08;2.95;;;1.52;;
74553;SDS011;65269;59.956;30.214;2022-11-20T00:49:34;3.42;;;1.90;;
74553;SDS011;65269;59.956;30.214;2022-11-20T00:52:00;3.53;;;2.00;;
74553;SDS011;65269;59.956;30.214;2022-11-20T00:54:26;4.20;;;1.77;;
74553;SDS011;65269;59.956;30.214;2022-11-20T00:56:54;4.25;;;2.05;;
74553;SDS011;65269;59.956;30.214;2022-11-20T00:59:20;3.35;;;1.77;;
74553;SDS011;65269;59.956;30.214;2022-11-20T01:01:46;4.80;;;2.10;;
74553;SDS011;65269;59.956;30.214;2022-11-20T01:04:12;6.25;;;2.38;;
74553;SDS011;65269;59.956;30.214;2022-11-20T01:06:38;3.50;;;1.92;;
74553;SDS011;65269;59.956;30.214;2022-11-20T01:09:09;4.85;;;2.05;;
74553;SDS011;65269;59.956;30.214;2022-11-20T01:11:38;4.47;;;1.60;;
74553;SDS011;65269;59.956;30.214;2022-11-20T01:14:06;3.63;;;1.88;;
74553;SDS011;65269;59.956;30.214;2022-11-20T01:16:37;3.35;;;1.88;;
74553;SDS011;65269;59.956;30.214;2022-11-20T01:19:05;3.50;;;2.00;;
74553;SDS011;65269;59.956;30.214;2022-11-20T01:21:33;3.17;;;2.28;;
74553;SDS011;65269;59.956;30.214;2022-11-20T01:24:01;3.60;;;1.80;;
74553;SDS011;65269;59.956;30.214;2022-11-20T01:26:29;3.50;;;1.90;;
74553;SDS011;65269;59.956;30.214;2022-11-20T01:28:57;3.72;;;2.00;;
74553;SDS011;65269;59.956;30.214;2022-11-20T01:31:24;6.18;;;2.25;;
74553;SDS011;65269;59.956;30.214;2022-11-20T01:34:01;2.10;;;1.17;;
74553;SDS011;65269;59.956;30.214;2022-11-20T01:36:30;3.15;;;1.63;;
74553;SDS011;65269;59.956;30.214;2022-11-20T01:38:57;4.10;;;1.60;;
74553;SDS011;65269;59.956;30.214;2022-11-20T01:41:25;3.85;;;1.70;;
74553;SDS011;65269;59.956;30.214;2022-11-20T01:44:12;5.28;;;2.70;;
74553;SDS011;65269;59.956;30.214;2022-11-20T01:47:02;4.18;;;2.05;;
74553;SDS011;65269;59.956;30.214;2022-11-20T01:49:39;3.45;;;1.80;;
74553;SDS011;65269;59.956;30.214;2022-11-20T01:52:12;3.35;;;1.92;;
74553;SDS011;65269;59.956;30.214;2022-11-20T01:54:42;4.40;;;1.80;;
74553;SDS011;65269;59.956;30.214;2022-11-20T01:57:12;3.63;;;1.70;;
74553;SDS011;65269;59.956;30.214;2022-11-20T01:59:40;4.40;;;2.10;;
74553;SDS011;65269;59.956;30.214;2022-11-20T02:02:08;3.20;;;1.70;;
74553;SDS011;65269;59.956;30.214;2022-11-20T02:04:34;3.08;;;1.83;;
74553;SDS011;65269;59.956;30.214;2022-11-20T02:07:01;4.60;;;2.10;;
74553;SDS011;65269;59.956;30.214;2022-11-20T02:09:28;4.82;;;2.25;;
74553;SDS011;65269;59.956;30.214;2022-11-20T02:11:54;3.60;;;1.80;;
74553;SDS011;65269;59.956;30.214;2022-11-20T02:14:20;3.10;;;1.52;;
74553;SDS011;65269;59.956;30.214;2022-11-20T02:16:47;3.05;;;1.52;;
74553;SDS011;65269;59.956;30.214;2022-11-20T02:19:21;4.38;;;2.25;;
74553;SDS011;65269;59.956;30.214;2022-11-20T02:21:53;2.83;;;1.90;;
74553;SDS011;65269;59.956;30.214;2022-11-20T02:24:24;3.53;;;2.05;;
74553;SDS011;65269;59.956;30.214;2022-11-20T02:26:57;4.40;;;1.77;;
74553;SDS011;65269;59.956;30.214;2022-11-20T02:29:37;4.75;;;2.50;;
74553;SDS011;65269;59.956;30.214;2022-11-20T02:32:17;3.63;;;2.00;;
74553;SDS011;65269;59.956;30.214;2022-11-20T02:34:50;3.95;;;2.10;;
74553;SDS011;65269;59.956;30.214;2022-11-20T02:37:16;4.55;;;1.98;;
74553;SDS011;65269;59.956;30.214;2022-11-20T02:39:42;3.70;;;2.08;;
74553;SDS011;65269;59.956;30.214;2022-11-20T02:42:09;3.70;;;1.92;;
74553;SDS011;65269;59.956;30.214;2022-11-20T02:44:35;4.30;;;2.33;;
74553;SDS011;65269;59.956;30.214;2022-11-20T02:47:01;3.88;;;2.03;;
74553;SDS011;65269;59.956;30.214;2022-11-20T02:49:27;5.45;;;1.90;;
74553;SDS011;65269;59.956;30.214;2022-11-20T02:51:53;4.70;;;2.20;;
74553;SDS011;65269;59.956;30.214;2022-11-20T02:54:18;4.28;;;2.28;;
74553;SDS011;65269;59.956;30.214;2022-11-20T02:56:44;3.50;;;2.20;;
74553;SDS011;65269;59.956;30.214;2022-11-20T02:59:10;6.30;;;2.40;;
74553;SDS011;65269;59.956;30.214;2022-11-20T03:01:36;3.80;;;2.35;;
74553;SDS011;65269;59.956;30.214;2022-11-20T03:04:02;3.55;;;2.00;;
74553;SDS011;65269;59.956;30.214;2022-11-20T03:06:28;4.18;;;2.50;;
74553;SDS011;65269;59.956;30.214;2022-11-20T03:08:53;4.28;;;2.13;;
74553;SDS011;65269;59.956;30.214;2022-11-20T03:11:19;4.85;;;2.33;;
74553;SDS011;65269;59.956;30.214;2022-11-20T03:13:45;4.70;;;2.05;;
74553;SDS011;65269;59.956;30.214;2022-11-20T03:16:12;4.40;;;2.10;;
74553;SDS011;65269;59.956;30.214;2022-11-20T03:18:39;4.72;;;2.35;;
74553;SDS011;65269;59.956;30.214;2022-11-20T03:21:06;5.38;;;2.85;;
74553;SDS011;65269;59.956;30.214;2022-11-20T03:23:32;6.20;;;2.30;;
74553;SDS011;65269;59.956;30.214;2022-11-20T03:26:21;3.17;;;2.00;;
74553;SDS011;65269;59.956;30.214;2022-11-20T03:28:52;4.43;;;2.13;;
74553;SDS011;65269;59.956;30.214;2022-11-20T03:31:23;5.70;;;2.60;;
74553;SDS011;65269;59.956;30.214;2022-11-20T03:33:50;4.78;;;2.70;;
74553;SDS011;65269;59.956;30.214;2022-11-20T03:36:16;4.72;;;2.42;;
74553;SDS011;65269;59.956;30.214;2022-11-20T03:38:43;4.55;;;2.30;;
74553;SDS011;65269;59.956;30.214;2022-11-20T03:41:10;5.50;;;2.38;;
74553;SDS011;65269;59.956;30.214;2022-11-20T03:43:51;4.60;;;1.92;;
74553;SDS011;65269;59.956;30.214;2022-11-20T03:46:17;5.15;;;2.70;;
74553;SDS011;65269;59.956;30.214;2022-11-20T03:48:43;4.75;;;2.40;;
74553;SDS011;65269;59.956;30.214;2022-11-20T03:51:13;4.93;;;2.17;;
74553;SDS011;65269;59.956;30.214;2022-11-20T03:53:39;3.42;;;2.10;;
74553;SDS011;65269;59.956;30.214;2022-11-20T03:56:06;2.92;;;1.45;;
74553;SDS011;65269;59.956;30.214;2022-11-20T03:58:33;4.45;;;2.50;;
74553;SDS011;65269;59.956;30.214;2022-11-20T04:01:05;5.25;;;2.30;;
74553;SDS011;65269;59.956;30.214;2022-11-20T04:03:42;6.32;;;2.60;;
74553;SDS011;65269;59.956;30.214;2022-11-20T04:06:09;6.97;;;2.47;;
74553;SDS011;65269;59.956;30.214;2022-11-20T04:08:36;6.05;;;2.63;;
74553;SDS011;65269;59.956;30.214;2022-11-20T04:13:40;4.38;;;2.20;;
74553;SDS011;65269;59.956;30.214;2022-11-20T04:16:07;4.20;;;2.15;;
74553;SDS011;65269;59.956;30.214;2022-11-20T04:18:34;5.28;;;2.80;;
74553;SDS011;65269;59.956;30.214;2022-11-20T04:21:00;5.10;;;2.53;;
74553;SDS011;65269;59.956;30.214;2022-11-20T04:23:25;4.65;;;2.30;;
74553;SDS011;65269;59.956;30.214;2022-11-20T04:25:51;3.80;;;1.73;;
74553;SDS011;65269;59.956;30.214;2022-11-20T04:28:17;5.40;;;2.75;;
74553;SDS011;65269;59.956;30.214;2022-11-20T04:30:43;4.13;;;2.05;;
74553;SDS011;65269;59.956;30.214;2022-11-20T04:33:09;4.90;;;2.60;;
74553;SDS011;65269;59.956;30.214;2022-11-20T04:35:35;5.28;;;2.35;;
74553;SDS011;65269;59.956;30.214;2022-11-20T04:38:01;5.55;;;2.72;;
74553;SDS011;65269;59.956;30.214;2022-11-20T04:40:27;5.30;;;2.78;;
74553;SDS011;65269;59.956;30.214;2022-11-20T04:42:53;4.25;;;1.95;;
74553;SDS011;65269;59.956;30.214;2022-11-20T04:45:20;7.53;;;3.42;;
74553;SDS011;65269;59.956;30.214;2022-11-20T04:47:46;6.90;;;2.50;;
74553;SDS011;65269;59.956;30.214;2022-11-20T04:50:11;5.25;;;3.08;;
74553;SDS011;65269;59.956;30.214;2022-11-20T04:52:37;7.13;;;3.13;;
74553;SDS011;65269;59.956;30.214;2022-11-20T04:55:03;7.18;;;2.47;;
74553;SDS011;65269;59.956;30.214;2022-11-20T04:57:29;7.13;;;3.17;;
74553;SDS011;65269;59.956;30.214;2022-11-20T04:59:55;4.22;;;2.30;;
74553;SDS011;65269;59.956;30.214;2022-11-20T05:02:21;5.03;;;2.92;;
74553;SDS011;65269;59.956;30.214;2022-11-20T05:04:47;6.75;;;3.42;;
74553;SDS011;65269;59.956;30.214;2022-11-20T05:07:12;6.45;;;3.00;;
74553;SDS011;65269;59.956;30.214;2022-11-20T05:09:38;5.55;;;2.90;;
74553;SDS011;65269;59.956;30.214;2022-11-20T05:12:04;7.05;;;3.67;;
74553;SDS011;65269;59.956;30.214;2022-11-20T05:14:30;5.50;;;2.85;;
74553;SDS011;65269;59.956;30.214;2022-11-20T05:16:55;7.72;;;3.78;;
74553;SDS011;65269;59.956;30.214;2022-11-20T05:19:21;6.25;;;2.60;;
74553;SDS011;65269;59.956;30.214;2022-11-20T05:21:47;6.03;;;2.92;;
74553;SDS011;65269;59.956;30.214;2022-11-20T05:24:12;6.90;;;3.00;;
74553;SDS011;65269;59.956;30.214;2022-11-20T05:26:38;5.93;;;3.00;;
74553;SDS011;65269;59.956;30.214;2022-11-20T05:29:04;6.63;;;3.03;;
74553;SDS011;65269;59.956;30.214;2022-11-20T05:31:30;6.95;;;3.15;;
74553;SDS011;65269;59.956;30.214;2022-11-20T05:33:56;6.28;;;3.20;;
74553;SDS011;65269;59.956;30.214;2022-11-20T05:36:22;5.93;;;3.08;;
74553;SDS011;65269;59.956;30.214;2022-11-20T05:38:48;5.03;;;2.40;;
74553;SDS011;65269;59.956;30.214;2022-11-20T05:41:16;6.13;;;3.10;;
74553;SDS011;65269;59.956;30.214;2022-11-20T05:43:43;5.88;;;3.13;;
74553;SDS011;65269;59.956;30.214;2022-11-20T05:46:11;5.25;;;2.60;;
74553;SDS011;65269;59.956;30.214;2022-11-20T05:48:39;7.63;;;3.10;;
74553;SDS011;65269;59.956;30.214;2022-11-20T05:51:07;5.72;;;2.80;;
74553;SDS011;65269;59.956;30.214;2022-11-20T05:53:34;4.43;;;2.50;;
74553;SDS011;65269;59.956;30.214;2022-11-20T05:56:01;5.85;;;3.20;;
74553;SDS011;65269;59.956;30.214;2022-11-20T05:58:31;5.45;;;2.92;;
74553;SDS011;65269;59.956;30.214;2022-11-20T06:01:08;6.85;;;2.90;;
74553;SDS011;65269;59.956;30.214;2022-11-20T06:03:39;5.97;;;2.78;;
74553;SDS011;65269;59.956;30.214;2022-11-20T06:06:05;4.95;;;2.78;;
74553;SDS011;65269;59.956;30.214;2022-11-20T06:08:31;4.68;;;3.17;;
74553;SDS011;65269;59.956;30.214;2022-11-20T06:10:57;5.57;;;3.40;;
74553;SDS011;65269;59.956;30.214;2022-11-20T06:13:23;6.97;;;3.13;;
74553;SDS011;65269;59.956;30.214;2022-11-20T06:15:50;7.57;;;5.25;;
74553;SDS011;65269;59.956;30.214;2022-11-20T06:18:16;5.50;;;3.10;;
74553;SDS011;65269;59.956;30.214;2022-11-20T06:20:42;5.55;;;3.15;;
74553;SDS011;65269;59.956;30.214;2022-11-20T06:23:08;7.68;;;3.40;;
74553;SDS011;65269;59.956;30.214;2022-11-20T06:25:37;8.63;;;3.75;;
74553;SDS011;65269;59.956;30.214;2022-11-20T06:28:03;7.50;;;3.65;;
74553;SDS011;65269;59.956;30.214;2022-11-20T06:30:29;8.05;;;3.80;;
74553;SDS011;65269;59.956;30.214;2022-11-20T06:32:55;5.85;;;2.75;;
74553;SDS011;65269;59.956;30.214;2022-11-20T06:35:21;7.28;;;3.42;;
74553;SDS011;65269;59.956;30.214;2022-11-20T06:37:46;7.68;;;3.85;;
74553;SDS011;65269;59.956;30.214;2022-11-20T06:40:12;7.15;;;3.60;;
74553;SDS011;65269;59.956;30.214;2022-11-20T06:42:38;5.70;;;3.60;;
74553;SDS011;65269;59.956;30.214;2022-11-20T06:45:04;8.20;;;3.80;;
74553;SDS011;65269;59.956;30.214;2022-11-20T06:47:30;7.00;;;3.30;;
74553;SDS011;65269;59.956;30.214;2022-11-20T06:49:55;6.32;;;3.40;;
74553;SDS011;65269;59.956;30.214;2022-11-20T06:52:21;6.35;;;3.67;;
74553;SDS011;65269;59.956;30.214;2022-11-20T06:54:47;13.20;;;3.40;;
74553;SDS011;65269;59.956;30.214;2022-11-20T06:57:13;7.78;;;3.40;;
74553;SDS011;65269;59.956;30.214;2022-11-20T06:59:38;6.28;;;2.80;;
74553;SDS011;65269;59.956;30.214;2022-11-20T07:02:04;7.35;;;3.50;;
74553;SDS011;65269;59.956;30.214;2022-11-20T07:04:30;7.90;;;4.00;;
74553;SDS011;65269;59.956;30.214;2022-11-20T07:06:55;8.05;;;3.65;;
74553;SDS011;65269;59.956;30.214;2022-11-20T07:09:21;7.60;;;3.85;;
74553;SDS011;65269;59.956;30.214;2022-11-20T07:11:47;8.38;;;4.03;;
74553;SDS011;65269;59.956;30.214;2022-11-20T07:14:13;10.80;;;4.13;;
74553;SDS011;65269;59.956;30.214;2022-11-20T07:16:38;9.38;;;3.90;;
74553;SDS011;65269;59.956;30.214;2022-11-20T07:19:04;6.18;;;3.80;;
74553;SDS011;65269;59.956;30.214;2022-11-20T07:21:30;9.20;;;4.13;;
74553;SDS011;65269;59.956;30.214;2022-11-20T07:23:55;9.18;;;4.05;;
74553;SDS011;65269;59.956;30.214;2022-11-20T07:26:21;7.72;;;4.18;;
74553;SDS011;65269;59.956;30.214;2022-11-20T07:28:47;9.57;;;3.75;;
74553;SDS011;65269;59.956;30.214;2022-11-20T07:31:13;9.60;;;4.43;;
74553;SDS011;65269;59.956;30.214;2022-11-20T07:33:39;7.03;;;3.95;;
74553;SDS011;65269;59.956;30.214;2022-11-20T07:36:04;10.85;;;4.35;;
74553;SDS011;65269;59.956;30.214;2022-11-20T07:38:30;10.80;;;4.30;;
74553;SDS011;65269;59.956;30.214;2022-11-20T07:40:56;8.27;;;4.68;;
74553;SDS011;65269;59.956;30.214;2022-11-20T07:43:28;9.63;;;4.32;;
74553;SDS011;65269;59.956;30.214;2022-11-20T07:45:55;9.02;;;4.55;;
74553;SDS011;65269;59.956;30.214;2022-11-20T07:48:22;8.10;;;4.32;;
74553;SDS011;65269;59.956;30.214;2022-11-20T07:50:48;9.75;;;4.28;;
74553;SDS011;65269;59.956;30.214;2022-11-20T07:53:14;9.50;;;4.85;;
74553;SDS011;65269;59.956;30.214;2022-11-20T07:55:46;9.90;;;4.20;;
74553;SDS011;65269;59.956;30.214;2022-11-20T07:58:11;8.32;;;4.03;;
74553;SDS011;65269;59.956;30.214;2022-11-20T08:00:38;13.43;;;4.50;;
74553;SDS011;65269;59.956;30.214;2022-11-20T08:03:03;8.10;;;3.92;;
74553;SDS011;65269;59.956;30.214;2022-11-20T08:05:30;12.23;;;5.78;;
74553;SDS011;65269;59.956;30.214;2022-11-20T08:07:56;7.15;;;3.90;;
74553;SDS011;65269;59.956;30.214;2022-11-20T08:10:21;10.77;;;4.38;;
74553;SDS011;65269;59.956;30.214;2022-11-20T08:12:48;9.50;;;4.25;;
74553;SDS011;65269;59.956;30.214;2022-11-20T08:15:36;7.50;;;3.85;;
74553;SDS011;65269;59.956;30.214;2022-11-20T08:18:03;8.70;;;4.47;;
74553;SDS011;65269;59.956;30.214;2022-11-20T10:31:28;11.77;;;5.93;;
74553;SDS011;65269;59.956;30.214;2022-11-20T10:33:57;10.73;;;4.57;;
74553;SDS011;65269;59.956;30.214;2022-11-20T10:36:30;9.60;;;4.90;;
74553;SDS011;65269;59.956;30.214;2022-11-20T10:39:04;9.25;;;5.13;;
74553;SDS011;65269;59.956;30.214;2022-11-20T10:41:38;11.75;;;4.97;;
74553;SDS011;65269;59.956;30.214;2022-11-20T10:44:14;8.70;;;4.88;;
74553;SDS011;65269;59.956;30.214;2022-11-20T10:47:02;10.13;;;4.63;;
74553;SDS011;65269;59.956;30.214;2022-11-20T10:49:29;10.45;;;4.93;;
74553;SDS011;65269;59.956;30.214;2022-11-20T10:52:03;9.48;;;5.45;;
74553;SDS011;65269;59.956;30.214;2022-11-20T10:54:41;11.23;;;4.97;;
74553;SDS011;65269;59.956;30.214;2022-11-20T11:02:43;9.98;;;4.90;;
74553;SDS011;65269;59.956;30.214;2022-11-20T11:07:57;6.78;;;4.35;;
74553;SDS011;65269;59.956;30.214;2022-11-20T11:10:38;10.38;;;4.88;;
74553;SDS011;65269;59.956;30.214;2022-11-20T11:13:26;10.75;;;5.90;;
74553;SDS011;65269;59.956;30.214;2022-11-20T11:15:53;11.52;;;5.40;;
74553;SDS011;65269;59.956;30.214;2022-11-20T11:18:32;10.60;;;5.63;;
74553;SDS011;65269;59.956;30.214;2022-11-20T11:21:00;11.73;;;5.35;;
74553;SDS011;65269;59.956;30.214;2022-11-20T11:26:00;11.27;;;5.15;;
74553;SDS011;65269;59.956;30.214;2022-11-20T11:28:27;12.52;;;5.72;;
74553;SDS011;65269;59.956;30.214;2022-11-20T11:30:54;10.27;;;5.75;;
74553;SDS011;65269;59.956;30.214;2022-11-20T11:33:21;10.82;;;4.90;;
74553;SDS011;65269;59.956;30.214;2022-11-20T11:35:49;14.32;;;5.53;;
74553;SDS011;65269;59.956;30.214;2022-11-20T11:38:23;8.57;;;4.68;;
74553;SDS011;65269;59.956;30.214;2022-11-20T11:41:06;11.60;;;5.45;;
74553;SDS011;65269;59.956;30.214;2022-11-20T11:43:35;11.38;;;4.75;;
74553;SDS011;65269;59.956;30.214;2022-11-20T11:49:36;10.25;;;5.40;;
74553;SDS011;65269;59.956;30.214;2022-11-20T11:51:50;10.50;;;5.78;;
74553;SDS011;65269;59.956;30.214;2022-11-20T11:54:28;11.20;;;5.50;;
74553;SDS011;65269;59.956;30.214;2022-11-20T11:57:03;10.25;;;4.80;;
74553;SDS011;65269;59.956;30.214;2022-11-20T12:00:20;9.60;;;5.05;;
74553;SDS011;65269;59.956;30.214;2022-11-20T12:05:10;15.43;;;6.28;;
74553;SDS011;65269;59.956;30.214;2022-11-20T12:07:52;14.18;;;6.25;;
74553;SDS011;65269;59.956;30.214;2022-11-20T12:16:13;11.38;;;6.63;;
74553;SDS011;65269;59.956;30.214;2022-11-20T12:18:40;10.82;;;5.45;;
74553;SDS011;65269;59.956;30.214;2022-11-20T12:23:40;10.55;;;5.15;;
74553;SDS011;65269;59.956;30.214;2022-11-20T12:26:21;10.07;;;5.53;;
74553;SDS011;65269;59.956;30.214;2022-11-20T12:31:53;10.18;;;4.78;;
74553;SDS011;65269;59.956;30.214;2022-11-20T12:37:05;10.45;;;5.60;;
74553;SDS011;65269;59.956;30.214;2022-11-20T12:39:48;11.50;;;5.07;;
74553;SDS011;65269;59.956;30.214;2022-11-20T12:42:27;9.70;;;4.97;;
74553;SDS011;65269;59.956;30.214;2022-11-20T12:45:40;8.35;;;4.63;;
74553;SDS011;65269;59.956;30.214;2022-11-20T12:56:49;14.10;;;6.22;;
74553;SDS011;65269;59.956;30.214;2022-11-20T13:08:02;18.02;;;6.53;;
74553;SDS011;65269;59.956;30.214;2022-11-20T13:10:46;12.98;;;6.00;;
74553;SDS011;65269;59.956;30.214;2022-11-20T13:15:58;11.77;;;6.00;;
74553;SDS011;65269;59.956;30.214;2022-11-20T13:18:28;10.73;;;6.10;;
74553;SDS011;65269;59.956;30.214;2022-11-20T13:20:58;13.75;;;5.70;;
74553;SDS011;65269;59.956;30.214;2022-11-20T13:23:25;10.50;;;5.72;;
74553;SDS011;65269;59.956;30.214;2022-11-20T13:28:31;16.10;;;6.82;;
74553;SDS011;65269;59.956;30.214;2022-11-20T13:30:57;12.48;;;6.55;;
74553;SDS011;65269;59.956;30.214;2022-11-20T13:36:07;15.27;;;7.00;;
74553;SDS011;65269;59.956;30.214;2022-11-20T13:38:47;13.52;;;6.40;;
74553;SDS011;65269;59.956;30.214;2022-11-20T13:41:28;15.35;;;6.40;;
74553;SDS011;65269;59.956;30.214;2022-11-20T13:46:45;12.70;;;6.00;;
74553;SDS011;65269;59.956;30.214;2022-11-20T13:49:54;11.55;;;6.15;;
74553;SDS011;65269;59.956;30.214;2022-11-20T14:00:27;10.98;;;6.13;;
74553;SDS011;65269;59.956;30.214;2022-11-20T14:05:31;16.08;;;6.80;;
74553;SDS011;65269;59.956;30.214;2022-11-20T14:08:00;10.90;;;6.22;;
74553;SDS011;65269;59.956;30.214;2022-11-20T14:10:29;14.13;;;5.88;;
74553;SDS011;65269;59.956;30.214;2022-11-20T14:12:55;10.43;;;6.13;;
74553;SDS011;65269;59.956;30.214;2022-11-20T14:15:25;14.30;;;6.57;;
74553;SDS011;65269;59.956;30.214;2022-11-20T14:17:53;13.77;;;7.07;;
74553;SDS011;65269;59.956;30.214;2022-11-20T14:20:19;12.75;;;7.35;;
74553;SDS011;65269;59.956;30.214;2022-11-20T14:22:49;15.07;;;7.10;;
74553;SDS011;65269;59.956;30.214;2022-11-20T14:27:42;14.55;;;7.20;;
74553;SDS011;65269;59.956;30.214;2022-11-20T14:30:12;12.30;;;6.88;;
74553;SDS011;65269;59.956;30.214;2022-11-20T14:32:39;13.20;;;6.88;;
74553;SDS011;65269;59.956;30.214;2022-11-20T14:35:07;12.77;;;7.68;;
74553;SDS011;65269;59.956;30.214;2022-11-20T14:37:36;13.90;;;7.60;;
74553;SDS011;65269;59.956;30.214;2022-11-20T14:40:05;13.95;;;8.40;;
74553;SDS011;65269;59.956;30.214;2022-11-20T14:42:47;13.07;;;8.10;;
74553;SDS011;65269;59.956;30.214;2022-11-20T14:45:12;15.45;;;8.48;;
74553;SDS011;65269;59.956;30.214;2022-11-20T14:47:38;13.90;;;8.27;;
74553;SDS011;65269;59.956;30.214;2022-11-20T14:50:07;17.95;;;9.13;;
74553;SDS011;65269;59.956;30.214;2022-11-20T14:52:51;15.18;;;7.90;;
74553;SDS011;65269;59.956;30.214;2022-11-20T14:55:25;15.80;;;8.45;;
74553;SDS011;65269;59.956;30.214;2022-11-20T14:57:55;13.65;;;7.78;;
74553;SDS011;65269;59.956;30.214;2022-11-20T15:00:22;13.05;;;8.02;;
74553;SDS011;65269;59.956;30.214;2022-11-20T15:02:49;14.98;;;7.50;;
74553;SDS011;65269;59.956;30.214;2022-11-20T15:05:17;13.82;;;7.40;;
74553;SDS011;65269;59.956;30.214;2022-11-20T15:07:45;14.93;;;8.27;;
74553;SDS011;65269;59.956;30.214;2022-11-20T15:12:48;13.43;;;7.95;;
74553;SDS011;65269;59.956;30.214;2022-11-20T15:15:16;16.67;;;8.05;;
74553;SDS011;65269;59.956;30.214;2022-11-20T15:17:47;12.77;;;6.75;;
74553;SDS011;65269;59.956;30.214;2022-11-20T15:20:13;14.38;;;6.78;;
74553;SDS011;65269;59.956;30.214;2022-11-20T15:22:40;14.70;;;7.68;;
74553;SDS011;65269;59.956;30.214;2022-11-20T15:25:13;13.05;;;7.78;;
74553;SDS011;65269;59.956;30.214;2022-11-20T15:27:40;13.20;;;6.25;;
74553;SDS011;65269;59.956;30.214;2022-11-20T15:30:16;11.52;;;6.45;;
74553;SDS011;65269;59.956;30.214;2022-11-20T15:32:45;13.70;;;7.53;;
74553;SDS011;65269;59.956;30.214;2022-11-20T15:35:11;13.65;;;8.05;;
74553;SDS011;65269;59.956;30.214;2022-11-20T15:37:38;14.70;;;7.55;;
74553;SDS011;65269;59.956;30.214;2022-11-20T15:40:05;14.32;;;6.78;;
74553;SDS011;65269;59.956;30.214;2022-11-20T15:42:31;12.80;;;7.60;;
74553;SDS011;65269;59.956;30.214;2022-11-20T15:44:57;12.07;;;7.10;;
74553;SDS011;65269;59.956;30.214;2022-11-20T15:47:29;12.60;;;7.05;;
74553;SDS011;65269;59.956;30.214;2022-11-20T15:49:58;12.03;;;7.13;;
74553;SDS011;65269;59.956;30.214;2022-11-20T15:52:23;13.73;;;7.07;;
74553;SDS011;65269;59.956;30.214;2022-11-20T15:54:49;10.38;;;6.38;;
74553;SDS011;65269;59.956;30.214;2022-11-20T15:57:15;10.68;;;7.28;;
74553;SDS011;65269;59.956;30.214;2022-11-20T15:59:41;11.02;;;6.65;;
74553;SDS011;65269;59.956;30.214;2022-11-20T16:02:16;13.65;;;6.10;;
74553;SDS011;65269;59.956;30.214;2022-11-20T16:04:42;11.10;;;5.82;;
74553;SDS011;65269;59.956;30.214;2022-11-20T16:07:07;11.73;;;6.38;;
74553;SDS011;65269;59.956;30.214;2022-11-20T16:09:33;12.93;;;6.32;;
74553;SDS011;65269;59.956;30.214;2022-11-20T16:11:59;10.27;;;6.18;;
74553;SDS011;65269;59.956;30.214;2022-11-20T16:14:25;13.25;;;7.15;;
74553;SDS011;65269;59.956;30.214;2022-11-20T16:17:10;13.82;;;6.28;;
74553;SDS011;65269;59.956;30.214;2022-11-20T16:19:37;10.98;;;5.90;;
74553;SDS011;65269;59.956;30.214;2022-11-20T16:22:03;10.75;;;5.57;;
74553;SDS011;65269;59.956;30.214;2022-11-20T16:24:29;12.88;;;5.78;;
74553;SDS011;65269;59.956;30.214;2022-11-20T16:26:55;11.55;;;5.80;;
74553;SDS011;65269;59.956;30.214;2022-11-20T16:29:21;11.05;;;5.90;;
74553;SDS011;65269;59.956;30.214;2022-11-20T16:31:47;11.00;;;5.82;;
74553;SDS011;65269;59.956;30.214;2022-11-20T16:34:14;12.57;;;6.72;;
74553;SDS011;65269;59.956;30.214;2022-11-20T16:36:41;10.13;;;5.63;;
74553;SDS011;65269;59.956;30.214;2022-11-20T16:39:08;10.02;;;5.93;;
74553;SDS011;65269;59.956;30.214;2022-11-20T16:41:34;11.57;;;6.40;;
74553;SDS011;65269;59.956;30.214;2022-11-20T16:44:02;10.13;;;6.10;;
74553;SDS011;65269;59.956;30.214;2022-11-20T16:46:32;12.85;;;6.03;;
74553;SDS011;65269;59.956;30.214;2022-11-20T16:48:58;14.75;;;6.40;;
74553;SDS011;65269;59.956;30.214;2022-11-20T16:51:29;11.50;;;6.38;;
74553;SDS011;65269;59.956;30.214;2022-11-20T16:53:56;10.40;;;5.68;;
74553;SDS011;65269;59.956;30.214;2022-11-20T16:56:23;13.35;;;6.38;;
74553;SDS011;65269;59.956;30.214;2022-11-20T16:58:50;10.95;;;6.13;;
74553;SDS011;65269;59.956;30.214;2022-11-20T17:01:18;13.02;;;6.43;;
74553;SDS011;65269;59.956;30.214;2022-11-20T17:04:00;15.15;;;7.45;;
74553;SDS011;65269;59.956;30.214;2022-11-20T17:06:31;10.52;;;6.10;;
74553;SDS011;65269;59.956;30.214;2022-11-20T17:08:58;12.73;;;6.13;;
74553;SDS011;65269;59.956;30.214;2022-11-20T17:11:24;13.82;;;6.57;;
74553;SDS011;65269;59.956;30.214;2022-11-20T17:13:51;11.63;;;6.03;;
74553;SDS011;65269;59.956;30.214;2022-11-20T17:16:18;13.20;;;6.35;;
74553;SDS011;65269;59.956;30.214;2022-11-20T17:18:44;12.38;;;6.65;;
74553;SDS011;65269;59.956;30.214;2022-11-20T17:21:11;12.77;;;7.32;;
74553;SDS011;65269;59.956;30.214;2022-11-20T17:23:38;12.25;;;6.70;;
74553;SDS011;65269;59.956;30.214;2022-11-20T17:26:11;12.90;;;6.63;;
74553;SDS011;65269;59.956;30.214;2022-11-20T17:28:39;13.30;;;6.43;;
74553;SDS011;65269;59.956;30.214;2022-11-20T17:31:06;14.48;;;6.28;;
74553;SDS011;65269;59.956;30.214;2022-11-20T17:33:37;10.23;;;6.00;;
74553;SDS011;65269;59.956;30.214;2022-11-20T17:36:04;13.27;;;5.93;;
74553;SDS011;65269;59.956;30.214;2022-11-20T17:38:31;13.32;;;6.93;;
74553;SDS011;65269;59.956;30.214;2022-11-20T17:41:01;13.07;;;5.75;;
74553;SDS011;65269;59.956;30.214;2022-11-20T17:43:28;11.73;;;6.28;;
74553;SDS011;65269;59.956;30.214;2022-11-20T17:45:54;11.50;;;6.32;;
74553;SDS011;65269;59.956;30.214;2022-11-20T17:48:20;14.02;;;6.53;;
74553;SDS011;65269;59.956;30.214;2022-11-20T17:50:46;11.45;;;6.00;;
74553;SDS011;65269;59.956;30.214;2022-11-20T17:53:12;15.40;;;6.22;;
74553;SDS011;65269;59.956;30.214;2022-11-20T17:55:38;10.85;;;6.30;;
74553;SDS011;65269;59.956;30.214;2022-11-20T17:58:22;14.00;;;6.15;;
74553;SDS011;65269;59.956;30.214;2022-11-20T18:00:52;13.88;;;6.25;;
74553;SDS011;65269;59.956;30.214;2022-11-20T18:03:17;13.15;;;6.35;;
74553;SDS011;65269;59.956;30.214;2022-11-20T18:05:43;10.50;;;6.32;;